createdAt,value
2018-11-29T00:00:36.227Z,99.90
2018-11-29T00:03:06.675Z,99.90
2018-11-29T00:05:35.888Z,99.90
2018-11-29T00:08:05.119Z,99.90
2018-11-29T00:10:34.608Z,99.90
2018-11-29T00:13:04.323Z,99.90
2018-11-29T00:15:33.717Z,99.90
2018-11-29T00:18:02.992Z,99.90
2018-11-29T00:20:32.891Z,99.90
2018-11-29T00:23:02.156Z,99.90
2018-11-29T00:25:31.303Z,99.90
2018-11-29T00:28:00.459Z,99.90
2018-11-29T00:30:29.645Z,99.90
2018-11-29T00:32:58.802Z,99.90
2018-11-29T00:35:27.979Z,99.90
2018-11-29T00:37:57.150Z,99.90
2018-11-29T00:40:26.359Z,99.90
2018-11-29T00:42:55.525Z,99.90
2018-11-29T00:45:24.974Z,99.90
2018-11-29T00:47:54.174Z,99.90
2018-11-29T00:50:23.337Z,99.90
2018-11-29T00:52:52.734Z,99.90
2018-11-29T00:55:23.314Z,99.90
2018-11-29T00:57:53.097Z,99.90
2018-11-29T01:03:19.487Z,99.90
2018-11-29T01:05:48.659Z,99.90
2018-11-29T01:08:17.848Z,99.90
2018-11-29T01:10:47.051Z,99.90
2018-11-29T01:13:16.191Z,99.90
2018-11-29T01:15:45.339Z,99.90
2018-11-29T01:18:14.514Z,99.90
2018-11-29T01:20:43.672Z,99.90
2018-11-29T01:23:12.859Z,99.90
2018-11-29T01:25:42.019Z,99.90
2018-11-29T01:28:11.232Z,99.90
2018-11-29T01:30:40.440Z,99.90
2018-11-29T01:33:09.676Z,99.90
2018-11-29T01:35:38.830Z,99.90
2018-11-29T01:38:08.055Z,99.90
2018-11-29T01:40:37.266Z,99.90
2018-11-29T01:43:06.748Z,99.90
2018-11-29T01:45:35.912Z,99.90
2018-11-29T01:48:05.109Z,99.90
2018-11-29T01:50:34.313Z,99.90
2018-11-29T01:53:03.496Z,99.90
2018-11-29T01:55:32.688Z,99.90
2018-11-29T01:58:01.935Z,99.90
2018-11-29T02:00:31.155Z,99.90
2018-11-29T02:03:00.301Z,99.90
2018-11-29T02:05:29.508Z,99.90
2018-11-29T02:07:58.723Z,99.90
2018-11-29T02:10:32.020Z,99.90
2018-11-29T02:13:01.212Z,99.90
2018-11-29T02:15:30.367Z,99.90
2018-11-29T02:17:59.578Z,99.90
2018-11-29T02:20:28.749Z,99.90
2018-11-29T02:22:57.927Z,99.90
2018-11-29T02:25:27.106Z,99.90
2018-11-29T02:27:56.268Z,99.90
2018-11-29T02:30:25.567Z,99.90
2018-11-29T02:32:54.728Z,99.90
2018-11-29T02:35:23.893Z,99.90
2018-11-29T02:37:53.080Z,99.90
2018-11-29T02:40:22.323Z,99.90
2018-11-29T02:42:51.677Z,99.90
2018-11-29T02:45:23.647Z,99.80
2018-11-29T02:47:52.828Z,99.90
2018-11-29T02:50:21.989Z,99.90
2018-11-29T02:52:51.210Z,99.90
2018-11-29T02:55:20.387Z,99.90
2018-11-29T02:57:49.558Z,99.90
2018-11-29T03:00:19.747Z,99.90
2018-11-29T03:02:48.912Z,99.90
2018-11-29T03:05:18.596Z,99.90
2018-11-29T03:07:47.821Z,99.90
2018-11-29T03:10:22.483Z,99.90
2018-11-29T03:12:51.661Z,99.90
2018-11-29T03:15:21.015Z,99.90
2018-11-29T03:17:50.201Z,99.90
2018-11-29T03:20:19.357Z,99.90
2018-11-29T03:22:48.535Z,99.90
2018-11-29T03:25:17.856Z,99.90
2018-11-29T03:27:47.055Z,99.90
2018-11-29T03:30:17.789Z,99.90
2018-11-29T03:32:47.054Z,99.90
2018-11-29T03:35:16.323Z,99.90
2018-11-29T03:37:45.580Z,99.90
2018-11-29T03:40:16.550Z,99.90
2018-11-29T03:42:46.278Z,99.90
2018-11-29T03:45:16.427Z,99.90
2018-11-29T03:47:46.199Z,99.90
2018-11-29T03:50:17.689Z,99.90
2018-11-29T03:52:47.388Z,99.90
2018-11-29T03:55:16.569Z,99.90
2018-11-29T03:57:45.723Z,99.90
2018-11-29T04:03:24.975Z,99.90
2018-11-29T04:05:54.163Z,99.90
2018-11-29T04:08:23.309Z,99.90
2018-11-29T04:10:52.499Z,99.90
2018-11-29T04:13:21.651Z,99.90
2018-11-29T04:15:50.814Z,99.90
2018-11-29T04:18:20.352Z,99.90
2018-11-29T04:20:49.524Z,99.90
2018-11-29T04:23:18.684Z,99.90
2018-11-29T04:25:47.876Z,99.90
2018-11-29T04:28:17.139Z,99.90
2018-11-29T04:30:46.336Z,99.90
2018-11-29T04:33:15.575Z,99.90
2018-11-29T04:35:44.724Z,99.90
2018-11-29T04:38:13.884Z,99.90
2018-11-29T04:40:43.098Z,99.90
2018-11-29T04:43:12.255Z,99.90
2018-11-29T04:46:47.475Z,99.90
2018-11-29T04:49:16.639Z,99.90
2018-11-29T04:51:45.810Z,99.90
2018-11-29T04:54:15.012Z,99.90
2018-11-29T04:56:44.169Z,99.90
2018-11-29T04:59:13.316Z,99.90
2018-11-29T05:01:42.575Z,99.90
2018-11-29T05:04:11.753Z,99.90
2018-11-29T05:06:40.932Z,99.90
2018-11-29T05:09:10.844Z,99.90
2018-11-29T05:11:40.016Z,99.90
2018-11-29T05:14:10.970Z,99.90
2018-11-29T05:16:40.145Z,99.90
2018-11-29T05:19:09.336Z,99.90
2018-11-29T05:21:38.557Z,99.90
2018-11-29T05:24:07.907Z,99.90
2018-11-29T05:26:37.055Z,99.90
2018-11-29T05:29:06.387Z,99.90
2018-11-29T05:31:35.587Z,99.90
2018-11-29T05:34:04.793Z,99.90
2018-11-29T05:36:33.932Z,99.90
2018-11-29T05:39:03.978Z,99.90
2018-11-29T05:41:33.119Z,99.90
2018-11-29T05:44:02.288Z,99.90
2018-11-29T05:46:31.467Z,99.90
2018-11-29T05:49:00.646Z,99.90
2018-11-29T05:51:29.840Z,99.90
2018-11-29T05:53:59.037Z,99.90
2018-11-29T05:56:28.202Z,99.90
2018-11-29T05:58:57.387Z,99.90
2018-11-29T06:01:35.043Z,99.90
2018-11-29T06:04:04.246Z,99.90
2018-11-29T06:06:33.403Z,99.90
2018-11-29T06:09:02.591Z,99.90
2018-11-29T06:11:31.764Z,99.90
2018-11-29T06:14:00.938Z,99.90
2018-11-29T06:16:30.119Z,99.90
2018-11-29T06:18:59.271Z,99.90
2018-11-29T06:24:38.900Z,99.90
2018-11-29T06:27:08.075Z,99.90
2018-11-29T06:29:37.288Z,99.90
2018-11-29T06:32:07.003Z,99.90
2018-11-29T06:34:36.168Z,99.90
2018-11-29T06:37:05.447Z,99.90
2018-11-29T06:39:34.765Z,99.90
2018-11-29T06:42:03.864Z,99.90
2018-11-29T06:44:33.020Z,99.90
2018-11-29T06:47:02.226Z,99.90
2018-11-29T06:49:31.395Z,99.90
2018-11-29T06:52:00.546Z,99.90
2018-11-29T06:54:29.731Z,99.90
2018-11-29T06:56:58.897Z,99.90
2018-11-29T06:59:28.060Z,99.90
2018-11-29T07:01:57.242Z,99.90
2018-11-29T07:04:26.407Z,99.90
2018-11-29T07:06:55.568Z,99.90
2018-11-29T07:09:24.772Z,99.90
2018-11-29T07:11:53.998Z,99.90
2018-11-29T07:14:23.163Z,99.90
2018-11-29T07:16:52.342Z,99.90
2018-11-29T07:19:21.519Z,99.90
2018-11-29T07:21:54.507Z,99.90
2018-11-29T07:24:24.761Z,99.90
2018-11-29T07:29:59.595Z,99.90
2018-11-29T07:32:29.171Z,99.90
2018-11-29T07:34:58.339Z,99.90
2018-11-29T07:37:27.565Z,99.90
2018-11-29T07:39:56.744Z,99.90
2018-11-29T07:42:25.921Z,99.90
2018-11-29T07:44:55.142Z,99.90
2018-11-29T07:47:24.334Z,99.90
2018-11-29T07:50:03.080Z,99.90
2018-11-29T07:52:32.237Z,99.90
2018-11-29T07:55:01.472Z,99.90
2018-11-29T07:57:30.735Z,99.90
2018-11-29T07:59:59.872Z,99.90
2018-11-29T08:02:29.109Z,99.90
2018-11-29T08:04:58.329Z,99.90
2018-11-29T08:07:27.504Z,99.90
2018-11-29T08:09:56.719Z,99.90
2018-11-29T08:12:25.880Z,99.90
2018-11-29T08:14:55.028Z,99.90
2018-11-29T08:17:24.207Z,99.90
2018-11-29T08:19:53.423Z,99.90
2018-11-29T08:22:22.583Z,99.90
2018-11-29T08:24:52.261Z,99.90
2018-11-29T08:27:21.414Z,99.90
2018-11-29T08:29:50.621Z,99.90
2018-11-29T08:32:19.803Z,99.90
2018-11-29T08:34:48.989Z,99.90
2018-11-29T08:37:18.179Z,99.90
2018-11-29T08:39:47.355Z,99.90
2018-11-29T08:42:16.553Z,99.90
2018-11-29T08:44:46.324Z,99.90
2018-11-29T08:47:15.516Z,99.90
2018-11-29T08:49:44.714Z,99.90
2018-11-29T08:52:13.911Z,99.90
2018-11-29T08:54:43.169Z,99.90
2018-11-29T08:57:12.335Z,99.90
2018-11-29T08:59:41.531Z,99.90
2018-11-29T09:02:10.703Z,99.90
2018-11-29T09:04:39.915Z,99.90
2018-11-29T09:07:09.156Z,99.90
2018-11-29T09:09:38.311Z,99.90
2018-11-29T09:12:07.471Z,99.90
2018-11-29T09:14:36.668Z,99.90
2018-11-29T09:17:05.861Z,99.90
2018-11-29T09:19:37.481Z,99.90
2018-11-29T09:22:04.264Z,99.90
2018-11-29T09:24:33.428Z,99.90
2018-11-29T09:27:02.649Z,99.90
2018-11-29T09:29:31.819Z,99.90
2018-11-29T09:32:01.023Z,99.90
2018-11-29T09:34:30.189Z,99.90
2018-11-29T09:36:59.331Z,99.90
2018-11-29T09:39:28.511Z,99.90
2018-11-29T09:41:57.680Z,99.90
2018-11-29T09:44:26.831Z,99.90
2018-11-29T09:46:56.179Z,99.90
2018-11-29T09:49:25.341Z,99.90
2018-11-29T09:51:54.501Z,99.90
2018-11-29T09:54:23.700Z,99.40
2018-11-29T09:56:52.844Z,99.30
2018-11-29T09:59:22.100Z,99.90
2018-11-29T10:01:51.295Z,99.90
2018-11-29T10:04:20.543Z,99.90
2018-11-29T10:06:49.696Z,99.90
2018-11-29T10:12:22.340Z,99.90
2018-11-29T10:14:51.511Z,99.90
2018-11-29T10:17:20.682Z,99.90
2018-11-29T10:19:49.876Z,99.90
2018-11-29T10:22:19.039Z,99.90
2018-11-29T10:24:48.183Z,99.90
2018-11-29T10:33:16.490Z,99.90
2018-11-29T10:35:45.696Z,99.90
2018-11-29T10:38:14.888Z,99.90
2018-11-29T10:40:44.060Z,99.90
2018-11-29T10:43:13.283Z,99.90
2018-11-29T10:45:42.496Z,99.20
2018-11-29T10:48:14.232Z,99.90
2018-11-29T10:50:43.464Z,99.90
2018-11-29T10:53:12.640Z,99.90
2018-11-29T10:55:41.865Z,98.80
2018-11-29T10:58:11.070Z,98.40
2018-11-29T11:00:45.848Z,99.90
2018-11-29T11:03:20.416Z,99.90
2018-11-29T11:05:52.226Z,98.30
2018-11-29T11:08:21.996Z,99.90
2018-11-29T11:10:51.325Z,99.90
2018-11-29T11:13:20.491Z,98.50
2018-11-29T11:15:49.685Z,99.40
2018-11-29T11:18:19.144Z,99.90
2018-11-29T11:20:48.382Z,99.60
2018-11-29T11:23:17.544Z,99.90
2018-11-29T11:25:46.724Z,98.50
2018-11-29T11:28:15.908Z,99.90
2018-11-29T11:30:45.523Z,99.90
2018-11-29T11:33:14.718Z,99.30
2018-11-29T11:35:43.931Z,98.60
2018-11-29T11:38:13.120Z,98.10
2018-11-29T11:40:42.264Z,99.50
2018-11-29T11:43:11.434Z,98.50
2018-11-29T11:45:40.661Z,98.40
2018-11-29T11:48:09.815Z,98.30
2018-11-29T11:50:39.032Z,99.90
2018-11-29T11:53:09.409Z,99.20
2018-11-29T11:55:38.887Z,99.00
2018-11-29T11:58:09.181Z,99.90
2018-11-29T12:00:39.430Z,98.80
2018-11-29T12:03:16.391Z,98.40
2018-11-29T12:05:45.608Z,99.90
2018-11-29T12:08:14.784Z,98.40
2018-11-29T12:10:44.620Z,98.90
2018-11-29T12:13:13.788Z,99.90
2018-11-29T12:15:43.155Z,99.90
2018-11-29T12:18:13.443Z,98.80
2018-11-29T12:20:42.683Z,98.20
2018-11-29T12:23:11.851Z,99.90
2018-11-29T12:25:41.009Z,99.90
2018-11-29T12:28:10.201Z,99.90
2018-11-29T12:30:45.103Z,97.70
2018-11-29T12:33:14.302Z,95.10
2018-11-29T12:35:43.488Z,98.40
2018-11-29T12:38:12.664Z,97.70
2018-11-29T12:40:41.872Z,96.40
2018-11-29T12:43:11.074Z,97.10
2018-11-29T12:45:40.237Z,97.60
2018-11-29T12:48:09.404Z,97.30
2018-11-29T12:50:39.871Z,97.70
2018-11-29T12:53:09.395Z,96.20
2018-11-29T12:55:42.125Z,97.10
2018-11-29T12:58:11.274Z,99.10
2018-11-29T13:00:40.472Z,95.90
2018-11-29T13:03:10.092Z,96.00
2018-11-29T13:05:39.376Z,95.50
2018-11-29T13:08:09.498Z,97.60
2018-11-29T13:10:38.718Z,96.30
2018-11-29T13:13:08.232Z,97.60
2018-11-29T13:15:37.425Z,98.50
2018-11-29T13:18:08.704Z,97.00
2018-11-29T13:20:37.941Z,97.90
2018-11-29T13:23:07.457Z,95.90
2018-11-29T13:25:37.026Z,95.60
2018-11-29T13:28:07.102Z,98.20
2018-11-29T13:30:37.783Z,97.80
2018-11-29T13:33:09.272Z,95.80
2018-11-29T13:35:38.543Z,96.70
2018-11-29T13:38:13.584Z,95.60
2018-11-29T13:40:47.779Z,98.10
2018-11-29T13:43:16.980Z,95.80
2018-11-29T13:45:48.293Z,96.20
2018-11-29T13:48:17.488Z,97.30
2018-11-29T13:50:46.637Z,97.60
2018-11-29T13:53:15.908Z,96.20
2018-11-29T13:55:45.063Z,97.20
2018-11-29T13:58:14.232Z,96.30
2018-11-29T14:00:43.407Z,96.20
2018-11-29T14:03:16.259Z,97.90
2018-11-29T14:05:45.415Z,96.10
2018-11-29T14:08:14.605Z,96.40
2018-11-29T14:10:44.344Z,95.40
2018-11-29T14:13:13.507Z,97.50
2018-11-29T14:15:42.681Z,95.70
2018-11-29T14:18:11.873Z,95.10
2018-11-29T14:20:41.007Z,96.00
2018-11-29T14:23:10.199Z,95.90
2018-11-29T14:25:39.360Z,95.30
2018-11-29T14:28:09.011Z,95.70
2018-11-29T14:30:38.163Z,95.70
2018-11-29T14:33:08.054Z,95.10
2018-11-29T14:35:37.220Z,95.60
2018-11-29T14:38:06.495Z,95.80
2018-11-29T14:40:37.077Z,96.20
2018-11-29T14:43:07.605Z,95.50
2018-11-29T14:45:36.833Z,95.40
2018-11-29T14:48:06.089Z,96.20
2018-11-29T14:50:39.249Z,97.30
2018-11-29T14:53:09.626Z,95.80
2018-11-29T14:55:39.653Z,95.10
2018-11-29T14:58:12.748Z,95.90
2018-11-29T15:00:42.148Z,96.40
2018-11-29T15:03:16.378Z,96.80
2018-11-29T15:05:46.252Z,95.30
2018-11-29T15:08:15.460Z,96.90
2018-11-29T15:10:44.689Z,97.90
2018-11-29T15:13:14.173Z,97.80
2018-11-29T15:15:44.171Z,96.40
2018-11-29T15:18:13.370Z,94.60
2018-11-29T15:20:46.735Z,95.40
2018-11-29T15:23:17.971Z,95.50
2018-11-29T15:25:47.174Z,95.00
2018-11-29T15:28:16.383Z,96.90
2018-11-29T15:30:45.592Z,96.00
2018-11-29T15:33:14.786Z,94.60
2018-11-29T15:35:43.965Z,97.00
2018-11-29T15:38:13.160Z,96.40
2018-11-29T15:40:42.459Z,96.40
2018-11-29T15:43:11.650Z,97.00
2018-11-29T15:45:40.849Z,97.10
2018-11-29T15:48:10.068Z,95.30
2018-11-29T15:50:39.361Z,98.50
2018-11-29T15:53:08.592Z,96.90
2018-11-29T15:55:37.901Z,94.00
2018-11-29T15:58:07.242Z,95.30
2018-11-29T16:00:36.459Z,96.80
2018-11-29T16:03:10.013Z,95.80
2018-11-29T16:05:41.252Z,95.90
2018-11-29T16:08:08.722Z,96.30
2018-11-29T16:10:37.915Z,94.60
2018-11-29T16:13:08.334Z,96.20
2018-11-29T16:15:38.370Z,96.60
2018-11-29T16:18:07.688Z,96.30
2018-11-29T16:20:38.806Z,97.30
2018-11-29T16:23:09.515Z,94.00
2018-11-29T16:25:38.845Z,96.80
2018-11-29T16:28:09.456Z,96.00
2018-11-29T16:31:02.305Z,95.50
2018-11-29T16:33:35.052Z,94.80
2018-11-29T16:36:04.582Z,96.90
2018-11-29T16:38:33.784Z,97.00
2018-11-29T16:41:03.361Z,95.60
2018-11-29T16:43:32.614Z,97.00
2018-11-29T16:46:01.805Z,95.10
2018-11-29T16:48:31.024Z,95.30
2018-11-29T16:51:00.285Z,98.00
2018-11-29T16:53:29.497Z,96.50
2018-11-29T16:55:58.747Z,96.70
2018-11-29T16:58:30.532Z,96.70
2018-11-29T17:00:59.738Z,97.20
2018-11-29T17:03:29.369Z,95.20
2018-11-29T17:05:58.577Z,95.70
2018-11-29T17:08:27.852Z,95.10
2018-11-29T17:10:57.073Z,95.20
2018-11-29T17:13:26.392Z,95.50
2018-11-29T17:15:55.645Z,97.00
2018-11-29T17:18:24.917Z,96.50
2018-11-29T17:20:54.128Z,95.60
2018-11-29T17:23:23.341Z,94.00
2018-11-29T17:25:52.642Z,96.20
2018-11-29T17:28:21.976Z,93.90
2018-11-29T17:30:51.160Z,95.20
2018-11-29T17:33:20.393Z,98.30
2018-11-29T17:35:49.659Z,94.70
2018-11-29T17:38:18.905Z,97.00
2018-11-29T17:40:48.161Z,95.20
2018-11-29T17:43:17.468Z,96.50
2018-11-29T17:45:46.721Z,96.00
2018-11-29T17:48:15.966Z,96.90
2018-11-29T17:50:45.777Z,97.50
2018-11-29T17:53:14.977Z,95.00
2018-11-29T17:55:44.324Z,97.30
2018-11-29T17:58:16.023Z,96.00
2018-11-29T18:00:49.697Z,96.70
2018-11-29T18:03:22.543Z,96.90
2018-11-29T18:05:52.141Z,96.80
2018-11-29T18:08:21.366Z,96.30
2018-11-29T18:10:55.360Z,96.20
2018-11-29T18:13:28.353Z,95.00
2018-11-29T18:15:57.707Z,97.10
2018-11-29T18:18:26.950Z,98.00
2018-11-29T18:20:56.189Z,97.70
2018-11-29T18:23:25.465Z,95.50
2018-11-29T18:25:54.765Z,97.60
2018-11-29T18:28:23.992Z,97.60
2018-11-29T18:30:53.468Z,96.90
2018-11-29T18:33:22.702Z,97.60
2018-11-29T18:35:51.958Z,96.70
2018-11-29T18:38:21.210Z,97.80
2018-11-29T18:40:50.429Z,96.60
2018-11-29T18:43:19.660Z,96.40
2018-11-29T18:45:48.933Z,98.00
2018-11-29T18:48:18.163Z,96.00
2018-11-29T18:50:47.551Z,96.60
2018-11-29T18:53:16.883Z,96.90
2018-11-29T18:55:46.694Z,97.00
2018-11-29T18:58:16.257Z,97.10
2018-11-29T19:00:45.488Z,96.60
2018-11-29T19:03:15.748Z,96.30
2018-11-29T19:05:45.027Z,98.60
2018-11-29T19:08:14.294Z,97.20
2018-11-29T19:10:43.679Z,98.20
2018-11-29T19:13:13.949Z,96.20
2018-11-29T19:15:43.168Z,97.80
2018-11-29T19:18:12.441Z,97.70
2018-11-29T19:20:42.224Z,96.30
2018-11-29T19:23:11.483Z,97.50
2018-11-29T19:25:40.765Z,96.60
2018-11-29T19:28:11.005Z,97.70
2018-11-29T19:30:40.241Z,96.80
2018-11-29T19:36:19.358Z,98.50
2018-11-29T19:38:48.611Z,97.40
2018-11-29T19:41:19.092Z,96.60
2018-11-29T19:43:49.326Z,97.30
2018-11-29T19:46:18.555Z,96.40
2018-11-29T19:48:47.774Z,96.70
2018-11-29T19:51:17.425Z,97.80
2018-11-29T19:53:46.651Z,97.00
2018-11-29T19:56:15.883Z,96.30
2018-11-29T19:58:45.180Z,98.60
2018-11-29T20:01:14.450Z,97.40
2018-11-29T20:03:43.852Z,99.00
2018-11-29T20:06:15.416Z,96.80
2018-11-29T20:08:44.978Z,97.40
2018-11-29T20:11:14.240Z,96.90
2018-11-29T20:13:43.588Z,98.30
2018-11-29T20:16:12.967Z,96.30
2018-11-29T20:18:42.288Z,98.20
2018-11-29T20:21:12.820Z,97.60
2018-11-29T20:23:42.311Z,98.50
2018-11-29T20:26:11.924Z,97.80
2018-11-29T20:28:41.226Z,98.40
2018-11-29T20:31:11.584Z,99.00
2018-11-29T20:33:41.243Z,97.30
2018-11-29T20:36:10.569Z,97.80
2018-11-29T20:38:39.913Z,98.00
2018-11-29T20:41:15.407Z,96.50
2018-11-29T20:43:44.763Z,98.60
2018-11-29T20:46:14.279Z,96.90
2018-11-29T20:48:44.191Z,97.50
2018-11-29T20:51:13.811Z,97.20
2018-11-29T20:53:43.262Z,97.40
2018-11-29T20:56:15.523Z,96.70
2018-11-29T20:58:44.867Z,98.40
2018-11-29T21:01:14.180Z,98.00
2018-11-29T21:03:44.574Z,99.20
2018-11-29T21:06:14.783Z,97.30
2018-11-29T21:08:44.089Z,98.90
2018-11-29T21:11:13.410Z,97.60
2018-11-29T21:13:42.714Z,98.60
2018-11-29T21:16:12.646Z,99.60
2018-11-29T21:18:41.901Z,98.20
2018-11-29T21:21:11.312Z,97.90
2018-11-29T21:23:40.579Z,98.00
2018-11-29T21:26:10.043Z,97.40
2018-11-29T21:28:39.407Z,97.10
2018-11-29T21:31:08.671Z,96.60
2018-11-29T21:33:38.122Z,98.80
2018-11-29T21:36:07.466Z,97.50
2018-11-29T21:38:36.825Z,97.70
2018-11-29T21:41:06.278Z,97.60
2018-11-29T21:43:35.501Z,98.40
2018-11-29T21:46:04.737Z,97.50
2018-11-29T21:48:34.051Z,97.50
2018-11-29T21:51:03.305Z,97.80
2018-11-29T21:53:32.517Z,97.30
2018-11-29T21:56:01.790Z,97.30
2018-11-29T21:58:31.060Z,98.50
2018-11-29T22:01:01.253Z,98.30
2018-11-29T22:03:30.697Z,98.50
2018-11-29T22:05:59.890Z,97.80
2018-11-29T22:08:29.190Z,98.00
2018-11-29T22:10:58.402Z,97.60
2018-11-29T22:13:27.594Z,99.90
2018-11-29T22:15:56.886Z,99.00
2018-11-29T22:18:26.465Z,99.50
2018-11-29T22:21:02.656Z,98.10
2018-11-29T22:23:33.767Z,98.30
2018-11-29T22:26:06.059Z,98.70
2018-11-29T22:28:35.253Z,98.70
2018-11-29T22:31:04.550Z,98.40
2018-11-29T22:33:33.825Z,98.70
2018-11-29T22:36:03.050Z,98.60
2018-11-29T22:38:32.275Z,98.60
2018-11-29T22:41:01.525Z,98.20
2018-11-29T22:43:30.980Z,99.90
2018-11-29T22:46:00.037Z,98.10
2018-11-29T22:48:29.261Z,98.80
2018-11-29T22:50:58.463Z,98.20
2018-11-29T22:53:27.670Z,98.90
2018-11-29T22:55:57.837Z,98.00
2018-11-29T22:58:27.081Z,98.60
2018-11-29T23:00:56.373Z,99.30
2018-11-29T23:03:25.578Z,99.50
2018-11-29T23:05:54.770Z,98.80
2018-11-29T23:08:24.042Z,99.40
2018-11-29T23:10:53.325Z,98.10
2018-11-29T23:13:22.560Z,97.50
2018-11-29T23:15:51.865Z,99.50
2018-11-29T23:18:21.108Z,98.90
2018-11-29T23:20:50.306Z,98.30
2018-11-29T23:23:19.537Z,98.10
2018-11-29T23:25:48.843Z,99.20
2018-11-29T23:28:18.060Z,98.60
2018-11-29T23:30:47.399Z,98.70
2018-11-29T23:33:16.643Z,98.70
2018-11-29T23:35:45.895Z,99.60
2018-11-29T23:38:15.696Z,98.80
2018-11-29T23:40:44.885Z,99.40
2018-11-29T23:43:14.106Z,99.10
2018-11-29T23:45:43.333Z,98.70
2018-11-29T23:48:12.534Z,97.80
2018-11-29T23:50:41.760Z,98.50
2018-11-29T23:53:11.032Z,99.00
2018-11-29T23:55:40.228Z,98.50
2018-11-29T23:58:09.433Z,99.80
